Hl Boryeong — 3FYM — position and weather

sailwx.info

Track history (hours):
 
Tides and Currents Weather Stations Pressure Air Temp Water Temp Dewpoint Dewpoint Depression Visibility Wind Speed Wind Dir Waves Ship Positions

Hl Boryeong

Last reported at 2017-Jun-26 04:57 UTC. Time now 2017-Jun-26 05:23 UTC.
Position S 32°57' E 152°35'.

Length 273 m; draft 9.4 m.

Type: Cargo ship. MMSI: 374471000.

Date/timePositionNaut miles runAvg speedWind from/ knotsBaromVisibWave heightAir tempDewpointWater temp
2017-Jun-26 04:57S 32°57' E 152°35'510.2
2017-Jun-26 04:31S 32°53' E 152°33'5 9.9
2017-Jun-26 04:00S 32°48' E 152°31'5 9.3
2017-Jun-26 03:30S 32°44' E 152°29'1 1.2
2017-Jun-26 03:00S 32°43' E 152°29'1 1.5
2017-Jun-26 02:31S 32°44' E 152°30'1 1.6
2017-Jun-26 02:00S 32°45' E 152°30'1 1.7
2017-Jun-26 01:30S 32°46' E 152°30'1 1.6
2017-Jun-26 01:00S 32°47' E 152°30'1 1.6
2017-Jun-26 00:30S 32°47' E 152°30'1 1.7
2017-Jun-26 00:00S 32°48' E 152°30'1 1.6
2017-Jun-25 23:31S 32°49' E 152°30'1 1.5
2017-Jun-25 23:00S 32°50' E 152°29'1 1.4
2017-Jun-25 22:30S 32°50' E 152°29'1 1.4
2017-Jun-25 22:00S 32°51' E 152°29'1 1.4
2017-Jun-25 21:31S 32°52' E 152°28'1 1.4
2017-Jun-25 21:01S 32°52' E 152°28'1 1.5
2017-Jun-25 20:31S 32°53' E 152°28'1 1.5
2017-Jun-25 20:01S 32°54' E 152°27'1 1.8
2017-Jun-25 19:30S 32°54' E 152°27'1 1.8
2017-Jun-25 19:00S 32°55' E 152°27'1 1.8
2017-Jun-25 18:30S 32°56' E 152°26'1 1.8
2017-Jun-25 18:01S 32°57' E 152°26'1 1.9
2017-Jun-25 17:30S 32°58' E 152°25'1 2.0
2017-Jun-25 17:00S 32°59' E 152°25'1 2.1
2017-Jun-25 16:30S 32°59' E 152°24'1 2.3
2017-Jun-25 16:00S 33°00' E 152°23'1 2.2
2017-Jun-25 15:30S 33°01' E 152°23'1 2.3
2017-Jun-25 15:01S 33°02' E 152°22'2 2.2
2017-Jun-25 14:00S 33°04' E 152°21'1 1.1
2017-Jun-25 13:30S 33°05' E 152°21'3 5.6
2017-Jun-25 13:00S 33°03' E 152°18'5 9.5
2017-Jun-25 12:30S 32°59' E 152°15'4 7.4
2017-Jun-25 12:00S 32°56' E 152°13'0 0.9
2017-Jun-25 11:30S 32°56' E 152°13'1 1.6
2017-Jun-25 11:00S 32°57' E 152°13'1 1.4
2017-Jun-25 10:30S 32°58' E 152°13'1 1.6
2017-Jun-25 10:00S 32°59' E 152°13'1 1.9
2017-Jun-25 09:30S 32°59' E 152°12'1 1.5
2017-Jun-25 09:00S 33°00' E 152°12'1 1.5
2017-Jun-25 08:30S 33°01' E 152°11'1 1.3
2017-Jun-25 08:00S 33°01' E 152°11'1 1.2
2017-Jun-25 07:30S 33°02' E 152°11'1 1.1
2017-Jun-25 06:59S 33°03' E 152°11'0 1.0
2017-Jun-25 06:30S 33°03' E 152°11'1 2.0
2017-Jun-25 06:00S 33°02' E 152°10'5 9.7
2017-Jun-25 05:30S 32°59' E 152°05'4 8.8
2017-Jun-25 05:00S 32°57' E 152°01'1 1.8
2017-Jun-25 04:30S 32°56' E 152°01'3 5.3
2017-Jun-25 04:00S 32°55' E 152°04'2 4.9
2017-Jun-25 03:30S 32°55' E 152°07'2 4.5
2017-Jun-25 03:00S 32°54' E 152°10'2 4.6
2017-Jun-25 02:31S 32°53' E 152°12'2 4.7
2017-Jun-25 02:00S 32°52' E 152°15'2 4.5
2017-Jun-25 01:30S 32°51' E 152°17'2 4.4
2017-Jun-25 01:01S 32°50' E 152°20'2 4.1
2017-Jun-25 00:30S 32°50' E 152°22'2 4.2
2017-Jun-25 00:00S 32°49' E 152°24'2 4.0
2017-Jun-24 23:31S 32°48' E 152°26'2 4.3
2017-Jun-24 23:00S 32°46' E 152°28'2 4.5
2017-Jun-24 22:30S 32°44' E 152°29'2 4.7
2017-Jun-24 22:00S 32°42' E 152°31'2 4.7
2017-Jun-24 21:30S 32°40' E 152°32'2 4.8
2017-Jun-24 21:00S 32°38' E 152°34'3 5.0
2017-Jun-24 20:30S 32°36' E 152°35'3 5.2
2017-Jun-24 20:00S 32°34' E 152°37'2 4.9
2017-Jun-24 19:31S 32°32' E 152°39'2 4.6
2017-Jun-24 19:00S 32°30' E 152°40'2 4.9
2017-Jun-24 18:30S 32°28' E 152°41'3 5.0
2017-Jun-24 18:00S 32°25' E 152°42'3 5.1
2017-Jun-24 17:30S 32°23' E 152°43'3 5.2
2017-Jun-24 17:00S 32°20' E 152°44'19 6.1
2017-Jun-24 13:54S 32°03' E 152°52'  
Track history (hours):
 
Tides and Currents Weather Stations Pressure Air Temp Water Temp Dewpoint Dewpoint Depression Visibility Wind Speed Wind Dir Waves Ship Positions

Hl Boryeong

Last reported at 2017-Jun-26 04:57 UTC. Time now 2017-Jun-26 05:23 UTC.
Position S 32°57' E 152°35'.

Length 273 m; draft 9.4 m.

Type: Cargo ship. MMSI: 374471000.

Date/timePositionNaut miles runAvg speedWind from/ knotsBaromVisibWave heightAir tempDewpointWater temp
2017-Jun-26 04:57S 32°57' E 152°35'510.2
2017-Jun-26 04:31S 32°53' E 152°33'5 9.9
2017-Jun-26 04:00S 32°48' E 152°31'5 9.3
2017-Jun-26 03:30S 32°44' E 152°29'1 1.2
2017-Jun-26 03:00S 32°43' E 152°29'1 1.5
2017-Jun-26 02:31S 32°44' E 152°30'1 1.6
2017-Jun-26 02:00S 32°45' E 152°30'1 1.7
2017-Jun-26 01:30S 32°46' E 152°30'1 1.6
2017-Jun-26 01:00S 32°47' E 152°30'1 1.6
2017-Jun-26 00:30S 32°47' E 152°30'1 1.7
2017-Jun-26 00:00S 32°48' E 152°30'1 1.6
2017-Jun-25 23:31S 32°49' E 152°30'1 1.5
2017-Jun-25 23:00S 32°50' E 152°29'1 1.4
2017-Jun-25 22:30S 32°50' E 152°29'1 1.4
2017-Jun-25 22:00S 32°51' E 152°29'1 1.4
2017-Jun-25 21:31S 32°52' E 152°28'1 1.4
2017-Jun-25 21:01S 32°52' E 152°28'1 1.5
2017-Jun-25 20:31S 32°53' E 152°28'1 1.5
2017-Jun-25 20:01S 32°54' E 152°27'1 1.8
2017-Jun-25 19:30S 32°54' E 152°27'1 1.8
2017-Jun-25 19:00S 32°55' E 152°27'1 1.8
2017-Jun-25 18:30S 32°56' E 152°26'1 1.8
2017-Jun-25 18:01S 32°57' E 152°26'1 1.9
2017-Jun-25 17:30S 32°58' E 152°25'1 2.0
2017-Jun-25 17:00S 32°59' E 152°25'1 2.1
2017-Jun-25 16:30S 32°59' E 152°24'1 2.3
2017-Jun-25 16:00S 33°00' E 152°23'1 2.2
2017-Jun-25 15:30S 33°01' E 152°23'1 2.3
2017-Jun-25 15:01S 33°02' E 152°22'2 2.2
2017-Jun-25 14:00S 33°04' E 152°21'1 1.1
2017-Jun-25 13:30S 33°05' E 152°21'3 5.6
2017-Jun-25 13:00S 33°03' E 152°18'5 9.5
2017-Jun-25 12:30S 32°59' E 152°15'4 7.4
2017-Jun-25 12:00S 32°56' E 152°13'0 0.9
2017-Jun-25 11:30S 32°56' E 152°13'1 1.6
2017-Jun-25 11:00S 32°57' E 152°13'1 1.4
2017-Jun-25 10:30S 32°58' E 152°13'1 1.6
2017-Jun-25 10:00S 32°59' E 152°13'1 1.9
2017-Jun-25 09:30S 32°59' E 152°12'1 1.5
2017-Jun-25 09:00S 33°00' E 152°12'1 1.5
2017-Jun-25 08:30S 33°01' E 152°11'1 1.3
2017-Jun-25 08:00S 33°01' E 152°11'1 1.2
2017-Jun-25 07:30S 33°02' E 152°11'1 1.1
2017-Jun-25 06:59S 33°03' E 152°11'0 1.0
2017-Jun-25 06:30S 33°03' E 152°11'1 2.0
2017-Jun-25 06:00S 33°02' E 152°10'5 9.7
2017-Jun-25 05:30S 32°59' E 152°05'4 8.8
2017-Jun-25 05:00S 32°57' E 152°01'1 1.8
2017-Jun-25 04:30S 32°56' E 152°01'3 5.3
2017-Jun-25 04:00S 32°55' E 152°04'2 4.9
2017-Jun-25 03:30S 32°55' E 152°07'2 4.5
2017-Jun-25 03:00S 32°54' E 152°10'2 4.6
2017-Jun-25 02:31S 32°53' E 152°12'2 4.7
2017-Jun-25 02:00S 32°52' E 152°15'2 4.5
2017-Jun-25 01:30S 32°51' E 152°17'2 4.4
2017-Jun-25 01:01S 32°50' E 152°20'2 4.1
2017-Jun-25 00:30S 32°50' E 152°22'2 4.2
2017-Jun-25 00:00S 32°49' E 152°24'2 4.0
2017-Jun-24 23:31S 32°48' E 152°26'2 4.3
2017-Jun-24 23:00S 32°46' E 152°28'2 4.5
2017-Jun-24 22:30S 32°44' E 152°29'2 4.7
2017-Jun-24 22:00S 32°42' E 152°31'2 4.7
2017-Jun-24 21:30S 32°40' E 152°32'2 4.8
2017-Jun-24 21:00S 32°38' E 152°34'3 5.0
2017-Jun-24 20:30S 32°36' E 152°35'3 5.2
2017-Jun-24 20:00S 32°34' E 152°37'2 4.9
2017-Jun-24 19:31S 32°32' E 152°39'2 4.6
2017-Jun-24 19:00S 32°30' E 152°40'2 4.9
2017-Jun-24 18:30S 32°28' E 152°41'3 5.0
2017-Jun-24 18:00S 32°25' E 152°42'3 5.1
2017-Jun-24 17:30S 32°23' E 152°43'3 5.2
2017-Jun-24 17:00S 32°20' E 152°44'19 6.1
2017-Jun-24 13:54S 32°03' E 152°52'  

Dump ship's entire track history